»·PEaware :: N65Z KTLR-KLGB

N65Z :: KTLR-KLGB

FLIGHT INFORMATION

Flight Status: Arrived
Operator: Privately registered:
United States
More flights under this callsign
Pilot: Brian P. (7180)
Aircraft: PILATUS PC-12 EAGLE
(PC12)
More flights by this aircraft type
Origin: KTLR Mefford
United States
Destination: KLGB Long Beach
United States
More flights between these airports :: More routes between these airports
Route: TTE V459 SLI
File this flight plan on PilotEdge
Remarks: Twitch Streaming / N65z
Altitude:
(Current/Filed)
11,000ft
Speed:
(Current/Filed)
220kts
Departed: 25-Jul-15 06:05 PM
Arrived: 25-Jul-15 06:49 PM
Distance/Time
Traveled:
152nm/0:44
Distance/Time
To Go:
Arrived

Flight Plot

Page will automatically refresh every two minutes.


Map Options




Map Legend


Flown Route
Filed Route
Departure Airport
Arrival Airport
Navaid (VOR, NDB)
Fix

Horizontal Profiles

Position Reports

Time Latitude Longitude Heading Altitude Ground
Speed
25-Jul-15 18:00 36.151745 -119.323934 309 276ft 0kts
25-Jul-15 18:01 36.151747 -119.323937 309 276ft 0kts
25-Jul-15 18:02 36.151748 -119.323939 309 276ft 0kts
25-Jul-15 18:03 36.151750 -119.323942 309 276ft 0kts
25-Jul-15 18:04 36.151752 -119.323944 309 276ft 0kts
25-Jul-15 18:05 36.151753 -119.323946 309 276ft 0kts
25-Jul-15 18:06 36.151755 -119.323948 309 276ft 0kts
25-Jul-15 18:07 36.151757 -119.323951 309 276ft 0kts
25-Jul-15 18:08 36.151758 -119.323953 309 276ft 0kts
25-Jul-15 18:09 36.151760 -119.323956 309 276ft 0kts
25-Jul-15 18:10 36.151761 -119.323958 309 276ft 0kts
25-Jul-15 18:11 36.151763 -119.323960 309 276ft 0kts
25-Jul-15 18:12 36.151765 -119.323963 309 276ft 0kts
25-Jul-15 18:13 36.152484 -119.324431 331 276ft 10kts
25-Jul-15 18:14 36.155556 -119.326885 324 276ft 12kts
25-Jul-15 18:15 36.158682 -119.329468 326 276ft 11kts
25-Jul-15 18:16 36.160252 -119.330347 51 276ft 0kts
25-Jul-15 18:17 36.158334 -119.328340 148 276ft 67kts
25-Jul-15 18:18 36.130761 -119.295994 134 1603ft 181kts
25-Jul-15 18:19 36.091508 -119.244754 134 3159ft 216kts
25-Jul-15 18:20 36.049956 -119.189668 134 4665ft 220kts
25-Jul-15 18:21 36.007696 -119.133604 134 6182ft 224kts
25-Jul-15 18:22 35.964272 -119.076078 134 7709ft 232kts
25-Jul-15 18:23 35.913648 -119.022600 149 9193ft 236kts
25-Jul-15 18:24 35.852377 -118.998835 164 10695ft 225kts
25-Jul-15 18:25 35.788882 -118.975362 165 11042ft 252kts
25-Jul-15 18:26 35.720193 -118.950242 165 11040ft 259kts
25-Jul-15 18:27 35.650587 -118.924862 165 11056ft 263kts
25-Jul-15 18:28 35.579107 -118.898854 165 11049ft 266kts
25-Jul-15 18:29 35.507380 -118.872782 164 11042ft 266kts
25-Jul-15 18:30 35.435954 -118.846777 165 11029ft 263kts
25-Jul-15 18:31 35.365901 -118.821333 165 11045ft 261kts
25-Jul-15 18:32 35.296378 -118.796089 165 11092ft 263kts
25-Jul-15 18:33 35.225027 -118.770234 165 11123ft 265kts
25-Jul-15 18:34 35.153717 -118.744572 165 11138ft 263kts
25-Jul-15 18:35 35.083722 -118.719739 165 11199ft 261kts
25-Jul-15 18:36 35.012652 -118.694480 165 11006ft 264kts
25-Jul-15 18:37 34.942423 -118.669332 165 11017ft 261kts
25-Jul-15 18:38 34.872551 -118.644379 165 11036ft 260kts
25-Jul-15 18:39 34.802755 -118.619491 166 11067ft 264kts
25-Jul-15 18:40 34.731174 -118.594004 166 11056ft 266kts
25-Jul-15 18:41 34.661429 -118.564390 154 11023ft 266kts
25-Jul-15 18:42 34.594815 -118.524954 157 10967ft 265kts
25-Jul-15 18:43 34.528248 -118.486119 156 10937ft 264kts
25-Jul-15 18:44 34.461685 -118.447259 157 10893ft 265kts
25-Jul-15 18:45 34.395100 -118.408411 156 10887ft 266kts
25-Jul-15 18:46 34.328129 -118.369542 157 10871ft 265kts
25-Jul-15 18:47 34.261534 -118.330740 157 10882ft 269kts
25-Jul-15 18:48 34.193213 -118.291112 157 10851ft 271kts
25-Jul-15 18:49 34.125018 -118.251561 157 10956ft 264kts
25-Jul-15 18:50 34.058324 -118.212981 157 11007ft 267kts
25-Jul-15 18:51 33.989754 -118.173476 157 10182ft 276kts
25-Jul-15 18:52 33.922119 -118.134495 156 8558ft 249kts
25-Jul-15 18:53 33.867733 -118.091342 134 6951ft 228kts
25-Jul-15 18:54 33.825711 -118.036191 133 5200ft 221kts
25-Jul-15 18:55 33.786822 -117.984146 133 3292ft 193kts
25-Jul-15 18:56 33.751520 -117.989373 223 2611ft 122kts
25-Jul-15 18:57 33.740795 -118.038299 286 2286ft 194kts
25-Jul-15 18:58 33.763397 -118.081931 306 1686ft 124kts
25-Jul-15 18:59 33.783747 -118.109789 308 887ft 93kts
25-Jul-15 19:00 33.801000 -118.130868 311 448ft 96kts
25-Jul-15 19:01 33.815802 -118.148880 311 65ft 25kts
25-Jul-15 19:02 33.818821 -118.153410 274 65ft 24kts
25-Jul-15 19:03 33.816866 -118.157369 180 65ft 13kts

Navigation Log

Ident Type
Flight plan parsing failed, navigation log unavailable